createdAt,value
2023-02-19T00:01:32.263Z,101409.88
2023-02-19T00:04:01.388Z,101411.78
2023-02-19T00:06:31.287Z,101406.59
2023-02-19T00:08:59.262Z,101409.16
2023-02-19T00:11:29.923Z,101413.56
2023-02-19T00:13:59.189Z,101415.38
2023-02-19T00:16:28.429Z,101414.44
2023-02-19T00:18:58.102Z,101416.13
2023-02-19T00:21:26.850Z,101418.66
2023-02-19T00:23:55.924Z,101404.59
2023-02-19T00:26:23.928Z,101411.78
2023-02-19T00:28:54.116Z,101414.44
2023-02-19T00:31:23.692Z,101405.56
2023-02-19T00:33:53.479Z,101403.13
2023-02-19T00:36:21.635Z,101403.22
2023-02-19T00:38:50.028Z,101407.44
2023-02-19T00:41:21.586Z,101403.88
2023-02-19T00:43:50.912Z,101399.63
2023-02-19T00:46:21.187Z,101405.34
2023-02-19T00:48:49.273Z,101410.63
2023-02-19T00:51:17.082Z,101405.34
2023-02-19T00:53:44.918Z,101402.06
2023-02-19T00:56:13.349Z,101412.31
2023-02-19T00:58:41.206Z,101420.22
2023-02-19T01:01:09.792Z,101417.59
2023-02-19T01:03:39.902Z,101414.94
2023-02-19T01:06:09.492Z,101417.59
2023-02-19T01:08:37.968Z,101419.50
2023-02-19T01:11:07.194Z,101409.88
2023-02-19T01:13:35.232Z,101403.66
2023-02-19T01:16:06.651Z,101410.63
2023-02-19T01:18:34.608Z,101413.38
2023-02-19T01:21:07.113Z,101412.53
2023-02-19T01:23:35.161Z,101415.06
2023-02-19T01:26:05.617Z,101410.72
2023-02-19T01:28:33.352Z,101406.50
2023-02-19T01:31:02.700Z,101416.84
2023-02-19T01:33:30.346Z,101415.91
2023-02-19T01:35:58.117Z,101414.22
2023-02-19T01:38:27.225Z,101415.28
2023-02-19T01:40:58.585Z,101416.31
2023-02-19T01:43:26.305Z,101414.63
2023-02-19T01:45:54.048Z,101412.72
2023-02-19T01:48:24.479Z,101418.00
2023-02-19T01:50:55.180Z,101404.06
2023-02-19T01:53:25.899Z,101423.09
2023-02-19T01:55:57.292Z,101412.53
2023-02-19T01:58:25.770Z,101416.75
2023-02-19T02:00:53.450Z,101422.88
2023-02-19T02:03:21.444Z,101424.78
2023-02-19T02:05:55.383Z,101425.00
2023-02-19T02:08:48.832Z,101433.13
2023-02-19T02:11:17.920Z,101430.69
2023-02-19T02:13:45.820Z,101431.00
2023-02-19T02:16:22.122Z,101425.84
2023-02-19T02:18:56.618Z,101418.88
2023-02-19T02:21:58.366Z,101432.19
2023-02-19T02:24:47.089Z,101431.34
2023-02-19T02:27:29.776Z,101429.63
2023-02-19T02:30:14.944Z,101425.28
2023-02-19T02:32:53.444Z,101430.56
2023-02-19T02:35:23.729Z,101431.53
2023-02-19T02:37:52.266Z,101425.63
2023-02-19T02:40:20.810Z,101430.91
2023-02-19T02:42:48.770Z,101428.34
2023-02-19T02:45:36.219Z,101432.91
2023-02-19T02:48:10.279Z,101431.22
2023-02-19T02:50:40.898Z,101429.53
2023-02-19T02:53:30.188Z,101439.13
2023-02-19T02:56:00.361Z,101438.41
2023-02-19T02:58:29.334Z,101436.78
2023-02-19T03:01:18.882Z,101435.94
2023-02-19T03:03:49.305Z,101448.41
2023-02-19T03:06:18.592Z,101444.81
2023-02-19T03:08:50.210Z,101449.25
2023-02-19T03:11:46.644Z,101457.19
2023-02-19T03:14:34.258Z,101454.66
2023-02-19T03:17:25.140Z,101460.88
2023-02-19T03:19:55.925Z,101462.56
2023-02-19T03:22:25.851Z,101468.81
2023-02-19T03:25:14.312Z,101469.75
2023-02-19T03:27:43.925Z,101461.41
2023-02-19T03:30:14.077Z,101470.72
2023-02-19T03:32:46.330Z,101468.91
2023-02-19T03:35:17.667Z,101470.06
2023-02-19T03:37:47.848Z,101474.59
2023-02-19T03:40:16.177Z,101470.16
2023-02-19T03:42:51.386Z,101480.72
2023-02-19T03:45:28.935Z,101485.16
2023-02-19T03:48:08.566Z,101484.50
2023-02-19T03:50:43.297Z,101486.22
2023-02-19T03:53:14.998Z,101489.78
2023-02-19T03:55:45.790Z,101492.53
2023-02-19T03:58:17.424Z,101496.97
2023-02-19T04:00:46.851Z,101502.44
2023-02-19T04:03:20.535Z,101510.38
2023-02-19T04:05:51.100Z,101508.75
2023-02-19T04:08:20.766Z,101513.00
2023-02-19T04:10:48.836Z,101506.97
2023-02-19T04:13:19.446Z,101526.38
2023-02-19T04:15:48.797Z,101520.59
2023-02-19T04:18:20.008Z,101522.28
2023-02-19T04:20:48.833Z,101515.09
2023-02-19T04:23:19.725Z,101526.38
2023-02-19T04:25:50.578Z,101530.72
2023-02-19T04:28:18.944Z,101541.38
2023-02-19T04:30:46.991Z,101537.72
2023-02-19T04:33:14.725Z,101541.19
2023-02-19T04:35:43.734Z,101544.69
2023-02-19T04:38:12.324Z,101551.75
2023-02-19T04:40:40.029Z,101547.50
2023-02-19T04:43:07.650Z,101555.41
2023-02-19T04:45:35.409Z,101553.63
2023-02-19T04:48:03.081Z,101560.69
2023-02-19T04:50:30.802Z,101554.56
2023-02-19T04:52:59.867Z,101556.38
2023-02-19T04:55:27.561Z,101567.88
2023-02-19T04:57:55.197Z,101574.84
2023-02-19T05:00:23.239Z,101583.72
2023-02-19T05:02:50.964Z,101582.97
2023-02-19T05:05:18.697Z,101584.78
2023-02-19T05:07:46.410Z,101588.16
2023-02-19T05:10:16.766Z,101594.38
2023-02-19T05:12:44.444Z,101598.06
2023-02-19T05:15:12.113Z,101606.91
2023-02-19T05:17:39.801Z,101615.59
2023-02-19T05:20:08.456Z,101609.47
2023-02-19T05:22:36.110Z,101605.22
2023-02-19T05:25:04.403Z,101615.59
2023-02-19T05:27:33.571Z,101611.16
2023-02-19T05:30:01.301Z,101612.00
2023-02-19T05:32:29.015Z,101624.25
2023-02-19T05:34:56.653Z,101617.28
2023-02-19T05:37:24.343Z,101624.47
2023-02-19T05:39:52.000Z,101628.69
2023-02-19T05:42:19.672Z,101637.56
2023-02-19T05:44:48.763Z,101626.31
2023-02-19T05:47:16.476Z,101634.56
2023-02-19T05:49:44.148Z,101629.34
2023-02-19T05:52:11.801Z,101634.63
2023-02-19T05:54:39.559Z,101628.59
2023-02-19T05:57:07.282Z,101632.94
2023-02-19T05:59:34.963Z,101636.41
2023-02-19T06:02:04.058Z,101631.25
2023-02-19T06:04:31.798Z,101644.34
2023-02-19T06:06:59.460Z,101638.31
2023-02-19T06:09:27.125Z,101644.63
2023-02-19T06:11:54.781Z,101648.13
2023-02-19T06:14:22.488Z,101647.19
2023-02-19T06:16:50.195Z,101662.16
2023-02-19T06:19:19.418Z,101669.22
2023-02-19T06:21:47.694Z,101667.81
2023-02-19T06:24:15.365Z,101673.94
2023-02-19T06:26:43.070Z,101676.78
2023-02-19T06:29:10.720Z,101688.06
2023-02-19T06:31:38.511Z,101685.53
2023-02-19T06:34:06.612Z,101692.72
2023-02-19T06:36:35.693Z,101697.03
2023-02-19T06:39:04.826Z,101704.94
2023-02-19T06:41:32.637Z,101716.44
2023-02-19T06:44:00.369Z,101719.09
2023-02-19T06:46:28.175Z,101724.38
2023-02-19T06:48:55.915Z,101719.25
2023-02-19T06:51:26.338Z,101733.38
2023-02-19T06:53:55.618Z,101723.78
2023-02-19T06:56:25.925Z,101739.63
2023-02-19T06:58:54.159Z,101745.84
2023-02-19T07:01:22.013Z,101754.50
2023-02-19T07:03:50.065Z,101764.00
2023-02-19T07:06:17.821Z,101767.50
2023-02-19T07:08:45.743Z,101767.50
2023-02-19T07:11:14.766Z,101763.25
2023-02-19T07:13:42.376Z,101766.94
2023-02-19T07:16:11.497Z,101776.66
2023-02-19T07:18:40.537Z,101786.44
2023-02-19T07:21:09.956Z,101781.22
2023-02-19T07:23:38.167Z,101789.09
2023-02-19T07:26:06.243Z,101790.44
2023-02-19T07:28:35.371Z,101805.53
2023-02-19T07:31:04.689Z,101801.09
2023-02-19T07:33:32.422Z,101803.72
2023-02-19T07:36:00.215Z,101815.13
2023-02-19T07:38:28.381Z,101810.06
2023-02-19T07:40:57.311Z,101815.91
2023-02-19T07:43:25.491Z,101816.81
2023-02-19T07:45:54.795Z,101813.28
2023-02-19T07:48:22.777Z,101814.97
2023-02-19T07:50:53.611Z,101825.53
2023-02-19T07:53:21.566Z,101829.09
2023-02-19T07:55:49.350Z,101840.56
2023-02-19T07:58:17.146Z,101837.94
2023-02-19T08:00:45.248Z,101837.19
2023-02-19T08:03:13.323Z,101851.31
2023-02-19T08:05:42.760Z,101852.59
2023-02-19T08:08:11.600Z,101868.56
2023-02-19T08:10:56.919Z,101865.34
2023-02-19T08:13:25.469Z,101876.94
2023-02-19T08:15:57.772Z,101885.00
2023-02-19T08:18:33.815Z,101887.72
2023-02-19T08:21:01.938Z,101889.59
2023-02-19T08:23:30.061Z,101900.72
2023-02-19T08:25:59.017Z,101907.66
2023-02-19T08:28:26.790Z,101909.75
2023-02-19T08:30:54.576Z,101922.31
2023-02-19T08:33:22.903Z,101916.38
2023-02-19T08:35:51.994Z,101928.84
2023-02-19T08:38:19.635Z,101931.66
2023-02-19T08:40:47.356Z,101946.94
2023-02-19T08:43:16.991Z,101945.41
2023-02-19T08:45:47.279Z,101944.56
2023-02-19T08:48:15.228Z,101951.69
2023-02-19T08:50:42.962Z,101964.09
2023-02-19T08:53:12.045Z,101962.72
2023-02-19T08:55:40.014Z,101963.41
2023-02-19T08:58:07.721Z,101973.06
2023-02-19T09:00:35.415Z,101983.69
2023-02-19T09:03:03.122Z,101987.34
2023-02-19T09:05:30.759Z,101995.09
2023-02-19T09:07:58.618Z,101994.06
2023-02-19T09:10:27.633Z,101993.84
2023-02-19T09:12:55.331Z,102001.50
2023-02-19T09:15:22.996Z,101995.22
2023-02-19T09:17:52.624Z,101990.72
2023-02-19T09:20:20.562Z,102000.94
2023-02-19T09:22:48.313Z,102004.31
2023-02-19T09:25:16.062Z,102007.81
2023-02-19T09:27:45.199Z,102032.31
2023-02-19T09:30:13.207Z,102030.69
2023-02-19T09:32:40.978Z,102035.34
2023-02-19T09:35:08.802Z,102040.69
2023-02-19T09:37:36.822Z,102044.50
2023-02-19T09:40:04.705Z,102057.41
2023-02-19T09:42:33.821Z,102072.63
2023-02-19T09:45:03.333Z,102083.56
2023-02-19T09:47:32.665Z,102089.13
2023-02-19T09:50:02.337Z,102093.63
2023-02-19T09:52:34.128Z,102099.13
2023-02-19T09:55:04.663Z,102097.56
2023-02-19T09:57:34.510Z,102112.38
2023-02-19T10:00:10.399Z,102105.41
2023-02-19T10:02:38.532Z,102103.69
2023-02-19T10:05:12.719Z,102093.00
2023-02-19T10:07:42.971Z,102112.13
2023-02-19T10:10:29.942Z,102125.75
2023-02-19T10:13:04.082Z,102131.09
2023-02-19T10:15:35.930Z,102122.59
2023-02-19T10:18:05.155Z,102130.41
2023-02-19T10:20:33.070Z,102129.56
2023-02-19T10:23:04.500Z,102141.63
2023-02-19T10:25:33.308Z,102137.94
2023-02-19T10:28:01.513Z,102137.63
2023-02-19T10:30:31.693Z,102144.53
2023-02-19T10:33:03.778Z,102150.63
2023-02-19T10:35:31.789Z,102156.53
2023-02-19T10:37:59.563Z,102166.38
2023-02-19T10:40:29.090Z,102164.59
2023-02-19T10:42:59.801Z,102164.38
2023-02-19T10:45:33.658Z,102166.75
2023-02-19T10:48:02.828Z,102161.19
2023-02-19T10:50:32.532Z,102172.34
2023-02-19T10:53:01.897Z,102175.84
2023-02-19T10:55:32.748Z,102178.38
2023-02-19T10:58:21.603Z,102171.59
2023-02-19T11:00:49.283Z,102179.94
2023-02-19T11:03:23.977Z,102185.22
2023-02-19T11:05:56.073Z,102177.41
2023-02-19T11:08:24.788Z,102178.69
2023-02-19T11:10:52.626Z,102169.88
2023-02-19T11:13:27.346Z,102182.72
2023-02-19T11:15:56.473Z,102171.38
2023-02-19T11:18:26.895Z,102170.47
2023-02-19T11:20:56.811Z,102173.56
2023-02-19T11:23:28.412Z,102180.56
2023-02-19T11:25:58.151Z,102175.09
2023-02-19T11:28:33.000Z,102170.69
2023-02-19T11:31:24.246Z,102173.56
2023-02-19T11:33:56.324Z,102170.16
2023-02-19T11:36:32.758Z,102167.50
2023-02-19T11:39:16.752Z,102174.25
2023-02-19T11:42:11.856Z,102172.28
2023-02-19T11:44:49.192Z,102178.19
2023-02-19T11:47:33.993Z,102185.16
2023-02-19T11:50:10.101Z,102186.59
2023-02-19T11:52:43.060Z,102178.53
2023-02-19T11:55:18.292Z,102186.09
2023-02-19T11:57:48.466Z,102195.88
2023-02-19T12:00:22.734Z,102182.88
2023-02-19T12:03:01.711Z,102174.97
2023-02-19T12:05:58.709Z,102196.31
2023-02-19T12:08:49.963Z,102199.06
2023-02-19T12:11:29.644Z,102201.91
2023-02-19T12:14:08.054Z,102201.91
2023-02-19T12:16:38.052Z,102196.66
2023-02-19T12:19:25.016Z,102197.66
2023-02-19T12:22:06.108Z,102189.84
2023-02-19T12:24:48.701Z,102181.00
2023-02-19T12:27:27.178Z,102189.97
2023-02-19T12:30:13.164Z,102191.72
2023-02-19T12:32:54.170Z,102187.34
2023-02-19T12:35:29.523Z,102189.84
2023-02-19T12:38:06.708Z,102193.34
2023-02-19T12:40:42.916Z,102201.16
2023-02-19T12:43:17.044Z,102197.50
2023-02-19T12:45:49.355Z,102198.38
2023-02-19T12:48:24.882Z,102196.31
2023-02-19T12:50:58.043Z,102199.72
2023-02-19T12:53:44.983Z,102202.91
2023-02-19T12:56:19.909Z,102201.72
2023-02-19T12:58:49.991Z,102200.63
2023-02-19T13:01:24.109Z,102212.81
2023-02-19T13:03:55.116Z,102212.81
2023-02-19T13:06:34.343Z,102207.25
2023-02-19T13:09:06.990Z,102215.97
2023-02-19T13:11:37.845Z,102230.97
2023-02-19T13:14:10.508Z,102220.72
2023-02-19T13:16:40.808Z,102228.31
2023-02-19T13:19:08.433Z,102223.28
2023-02-19T13:21:55.866Z,102235.38
2023-02-19T13:24:28.094Z,102242.28
2023-02-19T13:27:05.247Z,102234.34
2023-02-19T13:29:44.955Z,102238.94
2023-02-19T13:32:26.432Z,102244.38
2023-02-19T13:35:20.372Z,102248.13
2023-02-19T13:37:48.654Z,102262.41
2023-02-19T13:40:34.218Z,102267.06
2023-02-19T13:43:03.722Z,102273.47
2023-02-19T13:45:35.378Z,102275.31
2023-02-19T13:48:14.958Z,102274.38
2023-02-19T13:50:43.027Z,102277.03
2023-02-19T13:53:55.567Z,102279.75
2023-02-19T13:56:41.123Z,102271.34
2023-02-19T13:59:25.526Z,102282.63
2023-02-19T14:02:29.220Z,102287.91
2023-02-19T14:05:00.092Z,102281.84
2023-02-19T14:08:03.925Z,102272.91
2023-02-19T14:11:05.107Z,102267.41
2023-02-19T14:14:09.832Z,102262.59
2023-02-19T14:17:01.153Z,102271.88
2023-02-19T14:19:50.938Z,102269.25
2023-02-19T14:23:10.443Z,102269.06
2023-02-19T14:25:49.695Z,102267.38
2023-02-19T14:28:23.367Z,102268.13
2023-02-19T14:30:54.085Z,102261.91
2023-02-19T14:33:25.054Z,102256.66
2023-02-19T14:35:56.177Z,102253.25
2023-02-19T14:38:27.121Z,102253.06
2023-02-19T14:40:55.510Z,102247.88
2023-02-19T14:43:25.487Z,102232.13
2023-02-19T14:45:57.404Z,102223.28
2023-02-19T14:48:28.700Z,102218.84
2023-02-19T14:50:59.082Z,102216.13
2023-02-19T14:53:27.551Z,102203.78
2023-02-19T14:55:56.392Z,102208.38
2023-02-19T14:58:26.104Z,102218.09
2023-02-19T15:00:55.121Z,102213.97
2023-02-19T15:03:28.792Z,102216.78
2023-02-19T15:05:58.396Z,102208.03
2023-02-19T15:08:30.904Z,102200.44
2023-02-19T15:10:58.575Z,102208.09
2023-02-19T15:13:28.627Z,102210.66
2023-02-19T15:15:58.222Z,102203.75
2023-02-19T15:18:27.611Z,102205.72
2023-02-19T15:21:01.223Z,102213.09
2023-02-19T15:23:31.453Z,102222.72
2023-02-19T15:26:00.389Z,102219.13
2023-02-19T15:28:33.020Z,102219.13
2023-02-19T15:31:23.087Z,102234.97
2023-02-19T15:33:52.259Z,102238.63
2023-02-19T15:36:26.192Z,102243.91
2023-02-19T15:38:56.044Z,102242.41
2023-02-19T15:41:25.116Z,102247.69
2023-02-19T15:43:54.902Z,102253.16
2023-02-19T15:46:25.772Z,102255.03
2023-02-19T15:48:59.679Z,102255.28
2023-02-19T15:51:31.034Z,102260.56
2023-02-19T15:54:03.143Z,102263.28
2023-02-19T15:56:33.440Z,102246.75
2023-02-19T15:59:03.643Z,102254.66
2023-02-19T16:01:35.343Z,102253.72
2023-02-19T16:04:03.305Z,102254.59
2023-02-19T16:06:31.352Z,102248.63
2023-02-19T16:09:04.560Z,102237.38
2023-02-19T16:11:36.889Z,102251.47
2023-02-19T16:14:19.233Z,102242.63
2023-02-19T16:16:50.288Z,102245.53
2023-02-19T16:19:22.394Z,102264.59
2023-02-19T16:21:50.254Z,102282.13
2023-02-19T16:24:23.177Z,102282.13
2023-02-19T16:26:50.977Z,102293.59
2023-02-19T16:29:20.979Z,102285.84
2023-02-19T16:31:51.651Z,102290.19
2023-02-19T16:34:25.273Z,102290.94
2023-02-19T16:36:52.948Z,102292.81
2023-02-19T16:39:24.770Z,102290.28
2023-02-19T16:42:22.567Z,102287.81
2023-02-19T16:44:50.288Z,102291.41
2023-02-19T16:47:25.750Z,102293.13
2023-02-19T16:49:53.586Z,102290.66
2023-02-19T16:52:21.278Z,102304.00
2023-02-19T16:54:49.866Z,102300.50
2023-02-19T16:57:17.693Z,102311.28
2023-02-19T16:59:45.466Z,102311.34
2023-02-19T17:02:18.122Z,102312.41
2023-02-19T17:04:47.956Z,102312.41
2023-02-19T17:07:17.491Z,102299.31
2023-02-19T17:09:45.232Z,102312.97
2023-02-19T17:12:14.621Z,102307.69
2023-02-19T17:14:42.679Z,102320.03
2023-02-19T17:17:10.424Z,102317.31
2023-02-19T17:19:39.310Z,102314.69
2023-02-19T17:22:09.024Z,102320.13
2023-02-19T17:24:36.682Z,102327.84
2023-02-19T17:27:04.401Z,102330.50
2023-02-19T17:29:34.020Z,102334.16
2023-02-19T17:32:02.043Z,102342.91
2023-02-19T17:34:29.769Z,102341.19
2023-02-19T17:36:57.664Z,102340.44
2023-02-19T17:39:27.691Z,102324.81
2023-02-19T17:41:55.489Z,102337.16
2023-02-19T17:44:23.306Z,102330.38
2023-02-19T17:46:51.058Z,102330.38
2023-02-19T17:49:19.628Z,102336.59
2023-02-19T17:51:47.295Z,102334.03
2023-02-19T17:54:14.962Z,102341.16
2023-02-19T17:56:45.973Z,102355.41
2023-02-19T17:59:14.307Z,102354.63
2023-02-19T18:01:41.994Z,102354.75
2023-02-19T18:04:09.752Z,102354.84
2023-02-19T18:06:37.498Z,102356.63
2023-02-19T18:09:05.771Z,102350.50
2023-02-19T18:11:33.417Z,102354.91
2023-02-19T18:14:02.490Z,102358.59
2023-02-19T18:16:30.152Z,102366.75
2023-02-19T18:18:59.823Z,102374.72
2023-02-19T18:21:27.491Z,102367.09
2023-02-19T18:23:55.173Z,102358.44
2023-02-19T18:26:22.906Z,102354.38
2023-02-19T18:28:50.655Z,102357.78
2023-02-19T18:31:19.800Z,102366.59
2023-02-19T18:33:47.500Z,102364.03
2023-02-19T18:36:15.284Z,102371.06
2023-02-19T18:38:43.253Z,102369.31
2023-02-19T18:41:13.000Z,102373.69
2023-02-19T18:43:41.988Z,102366.72
2023-02-19T18:46:10.140Z,102367.56
2023-02-19T18:48:39.828Z,102380.81
2023-02-19T18:51:10.714Z,102374.00
2023-02-19T18:53:38.695Z,102378.09
2023-02-19T18:56:09.014Z,102382.41
2023-02-19T18:58:36.786Z,102380.53
2023-02-19T19:01:04.600Z,102366.38
2023-02-19T19:03:32.299Z,102372.50
2023-02-19T19:06:01.351Z,102365.53
2023-02-19T19:08:30.657Z,102369.16
2023-02-19T19:10:58.611Z,102368.31
2023-02-19T19:13:26.370Z,102366.44
2023-02-19T19:15:54.154Z,102360.25
2023-02-19T19:18:21.969Z,102351.38
2023-02-19T19:20:49.693Z,102340.00
2023-02-19T19:23:18.792Z,102343.59
2023-02-19T19:25:46.438Z,102354.38
2023-02-19T19:28:14.049Z,102357.63
2023-02-19T19:30:42.556Z,102364.59
2023-02-19T19:33:11.997Z,102366.31
2023-02-19T19:35:39.704Z,102369.25
2023-02-19T19:38:07.528Z,102375.56
2023-02-19T19:40:36.715Z,102388.94
2023-02-19T19:43:04.403Z,102379.28
2023-02-19T19:45:32.146Z,102389.84
2023-02-19T19:47:59.931Z,102393.63
2023-02-19T19:50:27.763Z,102387.50
2023-02-19T19:52:55.406Z,102389.34
2023-02-19T19:55:23.200Z,102389.16
2023-02-19T19:57:53.908Z,102392.91
2023-02-19T20:00:23.483Z,102398.38
2023-02-19T20:02:51.187Z,102388.91
2023-02-19T20:05:19.105Z,102376.81
2023-02-19T20:07:46.805Z,102387.34
2023-02-19T20:10:16.012Z,102384.72
2023-02-19T20:12:44.006Z,102389.91
2023-02-19T20:15:13.744Z,102377.53
2023-02-19T20:17:41.396Z,102381.78
2023-02-19T20:20:10.455Z,102382.09
2023-02-19T20:22:39.227Z,102388.13
2023-02-19T20:25:07.309Z,102382.94
2023-02-19T20:27:35.041Z,102373.25
2023-02-19T20:30:02.763Z,102370.63
2023-02-19T20:32:31.944Z,102370.56
2023-02-19T20:34:59.661Z,102368.69
2023-02-19T20:37:27.342Z,102369.53
2023-02-19T20:39:54.988Z,102383.63
2023-02-19T20:42:22.647Z,102386.41
2023-02-19T20:44:50.318Z,102384.72
2023-02-19T20:47:17.995Z,102388.19
2023-02-19T20:49:47.233Z,102383.91
2023-02-19T20:52:15.910Z,102397.13
2023-02-19T20:54:44.454Z,102380.56
2023-02-19T20:57:12.437Z,102379.84
2023-02-19T20:59:40.807Z,102366.81
2023-02-19T21:02:21.830Z,102362.66
2023-02-19T21:04:51.234Z,102374.19
2023-02-19T21:07:18.870Z,102365.63
2023-02-19T21:09:46.559Z,102351.69
2023-02-19T21:12:14.459Z,102347.44
2023-02-19T21:14:42.169Z,102350.41
2023-02-19T21:17:09.881Z,102351.53
2023-02-19T21:19:37.599Z,102356.84
2023-02-19T21:22:06.687Z,102343.69
2023-02-19T21:24:34.304Z,102341.00
2023-02-19T21:27:02.076Z,102352.22
2023-02-19T21:29:29.749Z,102351.38
2023-02-19T21:31:58.440Z,102353.28
2023-02-19T21:34:27.399Z,102358.75
2023-02-19T21:36:55.691Z,102360.66
2023-02-19T21:39:27.308Z,102365.25
2023-02-19T21:41:54.985Z,102367.25
2023-02-19T21:44:22.826Z,102372.50
2023-02-19T21:46:50.542Z,102369.81
2023-02-19T21:49:18.665Z,102377.75
2023-02-19T21:51:48.508Z,102383.28
2023-02-19T21:54:17.207Z,102369.31
2023-02-19T21:56:46.401Z,102378.09
2023-02-19T21:59:14.498Z,102379.81
2023-02-19T22:01:43.304Z,102370.19
2023-02-19T22:04:12.392Z,102386.03
2023-02-19T22:06:40.478Z,102383.63
2023-02-19T22:09:08.957Z,102397.56
2023-02-19T22:11:36.632Z,102404.75
2023-02-19T22:14:05.747Z,102395.25
2023-02-19T22:16:33.573Z,102406.59
2023-02-19T22:19:01.467Z,102408.31
2023-02-19T22:21:32.297Z,102412.78
2023-02-19T22:24:00.710Z,102402.38
2023-02-19T22:26:30.106Z,102391.94
2023-02-19T22:28:59.463Z,102389.22
2023-02-19T22:31:29.320Z,102391.84
2023-02-19T22:33:58.262Z,102383.31
2023-02-19T22:36:27.903Z,102393.94
2023-02-19T22:38:55.683Z,102377.38
2023-02-19T22:41:24.098Z,102378.25
2023-02-19T22:43:52.043Z,102381.72
2023-02-19T22:46:21.808Z,102380.88
2023-02-19T22:48:51.015Z,102372.28
2023-02-19T22:51:20.412Z,102370.81
2023-02-19T22:53:49.303Z,102363.94
2023-02-19T22:56:18.715Z,102357.84
2023-02-19T22:58:46.581Z,102377.88
2023-02-19T23:01:15.513Z,102363.09
2023-02-19T23:03:47.462Z,102360.53
2023-02-19T23:06:17.370Z,102367.63
2023-02-19T23:08:45.380Z,102361.53
2023-02-19T23:11:13.928Z,102363.47
2023-02-19T23:13:41.927Z,102351.25
2023-02-19T23:16:09.829Z,102351.19
2023-02-19T23:18:37.623Z,102345.84
2023-02-19T23:21:05.491Z,102337.13
2023-02-19T23:23:34.614Z,102338.03
2023-02-19T23:26:02.307Z,102336.34
2023-02-19T23:28:30.368Z,102325.03
2023-02-19T23:30:58.191Z,102315.44
2023-02-19T23:33:26.070Z,102304.91
2023-02-19T23:35:53.891Z,102298.78
2023-02-19T23:38:22.154Z,102294.47
2023-02-19T23:40:51.207Z,102298.94
2023-02-19T23:43:18.848Z,102296.38
2023-02-19T23:45:46.585Z,102291.00
2023-02-19T23:48:14.323Z,102286.53
2023-02-19T23:50:41.959Z,102284.19
2023-02-19T23:53:09.952Z,102285.88
2023-02-19T23:55:37.732Z,102286.84
2023-02-19T23:58:06.826Z,102291.25
